Time;durP1;ratioP1;P1;durP2;ratioP2;P2;SDS_P1;SDS_P2;PMS_P1;PMS_P2;Temp;Humidity;BMP_temperature;BMP_pressure;BME280_temperature;BME280_humidity;BME280_pressure;Samples;Min_cycle;Max_cycle;Signal;HPM_P1;HPM_P2
2021/06/14 00:00:54;;;;;;;1.00;0.25;;;;;;;16.24;100.00;100351.25;5074945;28;20043;-47
2021/06/14 00:03:57;;;;;;;3.17;0.20;;;;;;;16.13;100.00;100351.22;5074825;28;20055;-47
2021/06/14 00:07:01;;;;;;;1.42;0.20;;;;;;;16.02;100.00;100355.97;5075254;28;20043;-47
2021/06/14 00:10:08;;;;;;;1.17;0.20;;;;;;;15.94;100.00;100350.81;5074970;28;20059;-47
2021/06/14 00:13:11;;;;;;;0.40;0.20;;;;;;;15.85;100.00;100336.97;5074886;28;20048;-47
2021/06/14 00:16:15;;;;;;;0.30;0.20;;;;;;;15.78;100.00;100342.28;5075095;28;20511;-47
2021/06/14 00:19:19;;;;;;;0.73;0.30;;;;;;;15.75;100.00;100340.47;5075052;28;20511;-47
2021/06/14 00:22:23;;;;;;;0.80;0.30;;;;;;;15.72;100.00;100335.88;5074576;28;20052;-47
2021/06/14 00:25:29;;;;;;;4.65;0.85;;;;;;;15.49;100.00;100336.94;5074616;28;20094;-47
2021/06/14 00:28:33;;;;;;;0.88;0.13;;;;;;;15.42;100.00;100343.75;5074337;28;20417;-47
2021/06/14 00:31:36;;;;;;;0.63;0.20;;;;;;;15.32;100.00;100339.56;5074269;28;20412;-47
2021/06/14 00:34:40;;;;;;;1.58;0.50;;;;;;;15.24;100.00;100343.31;5073808;28;20051;-47
2021/06/14 00:37:43;;;;;;;0.10;0.10;;;;;;;15.17;100.00;100350.16;5074449;28;20063;-47
2021/06/14 00:40:48;;;;;;;1.70;0.43;;;;;;;15.11;100.00;100346.53;5074455;28;20405;-47
2021/06/14 00:43:51;;;;;;;0.17;0.17;;;;;;;15.05;100.00;100349.25;5074395;28;20503;-47
2021/06/14 00:46:54;;;;;;;1.20;0.20;;;;;;;15.00;100.00;100347.19;5073487;28;20047;-47
2021/06/14 00:49:58;;;;;;;0.60;0.52;;;;;;;14.90;100.00;100337.38;5073043;28;20511;-47
2021/06/14 00:53:02;;;;;;;0.98;0.40;;;;;;;14.87;100.00;100337.59;5073920;28;20048;-47
2021/06/14 00:56:09;;;;;;;2.60;0.30;;;;;;;14.91;100.00;100338.91;5073840;28;20063;-47
2021/06/14 00:59:15;;;;;;;2.83;0.55;;;;;;;14.76;100.00;100327.03;5074041;28;20520;-47
2021/06/14 01:02:18;;;;;;;0.52;0.43;;;;;;;14.75;100.00;100325.47;5074047;28;20046;-47
2021/06/14 01:05:23;;;;;;;0.30;0.22;;;;;;;14.85;100.00;100324.06;5073937;28;20051;-47
2021/06/14 01:08:29;;;;;;;1.85;0.35;;;;;;;14.90;100.00;100314.19;5073724;28;20389;-47
2021/06/14 01:11:43;;;;;;;0.70;0.20;;;;;;;14.84;100.00;100304.91;5073498;28;20048;-47
2021/06/14 01:15:09;;;;;;;1.85;0.55;;;;;;;14.57;100.00;100303.38;5074156;28;20058;-47
2021/06/14 01:18:16;;;;;;;1.15;0.43;;;;;;;14.39;100.00;100293.22;5073931;28;20059;-47
2021/06/14 01:21:33;;;;;;;0.68;0.40;;;;;;;14.32;100.00;100288.03;5073560;28;20039;-47
2021/06/14 01:24:58;;;;;;;1.17;0.30;;;;;;;14.28;100.00;100281.06;5073394;28;20047;-47
2021/06/14 01:28:05;;;;;;;2.25;0.30;;;;;;;14.20;100.00;100277.94;5073631;28;20500;-47
2021/06/14 01:31:08;;;;;;;0.20;0.13;;;;;;;14.16;100.00;100291.34;5073484;28;20500;-47
2021/06/14 01:34:12;;;;;;;1.15;0.30;;;;;;;14.08;100.00;100284.63;5073369;28;20567;-47
2021/06/14 01:37:17;;;;;;;0.20;0.10;;;;;;;14.06;100.00;100275.16;5073375;28;20075;-47
2021/06/14 01:40:23;;;;;;;2.30;0.38;;;;;;;14.00;100.00;100274.34;5073246;28;20408;-47
2021/06/14 01:43:30;;;;;;;1.48;0.35;;;;;;;13.97;100.00;100284.47;5073067;28;20051;-47
2021/06/14 01:46:37;;;;;;;3.60;0.30;;;;;;;13.98;100.00;100282.44;5072411;28;20071;-47
2021/06/14 01:49:41;;;;;;;9.30;0.40;;;;;;;13.92;100.00;100282.38;5072814;28;20115;-47
2021/06/14 01:52:45;;;;;;;2.53;0.45;;;;;;;13.92;100.00;100285.19;5073423;28;20047;-47
2021/06/14 01:55:50;;;;;;;2.35;0.63;;;;;;;13.96;100.00;100284.97;5072692;28;20397;-47
2021/06/14 01:58:54;;;;;;;0.75;0.35;;;;;;;13.96;100.00;100282.16;5072469;28;20047;-47
2021/06/14 02:01:58;;;;;;;1.40;0.40;;;;;;;13.91;100.00;100280.84;5072901;28;20535;-47
2021/06/14 02:05:02;;;;;;;0.55;0.30;;;;;;;13.90;100.00;100289.72;5072465;28;20051;-47
2021/06/14 02:08:11;;;;;;;0.85;0.30;;;;;;;13.93;100.00;100286.72;5072884;28;20052;-47
2021/06/14 02:11:16;;;;;;;0.77;0.38;;;;;;;13.79;100.00;100286.78;5072668;28;20405;-47
2021/06/14 02:14:26;;;;;;;1.02;0.45;;;;;;;13.75;100.00;100278.59;5072561;28;20063;-47
2021/06/14 02:17:31;;;;;;;1.37;0.20;;;;;;;13.75;100.00;100277.81;5072491;28;20043;-47
2021/06/14 02:20:35;;;;;;;0.63;0.20;;;;;;;13.73;100.00;100274.72;5072422;28;20757;-47
2021/06/14 02:23:38;;;;;;;0.20;0.10;;;;;;;13.73;100.00;100275.47;5072248;28;20051;-47
2021/06/14 02:26:42;;;;;;;1.60;0.60;;;;;;;13.74;100.00;100270.66;5072233;28;20063;-47
2021/06/14 02:29:47;;;;;;;0.63;0.38;;;;;;;13.73;100.00;100269.13;5072252;28;20063;-47
2021/06/14 02:32:52;;;;;;;1.45;0.35;;;;;;;13.71;100.00;100274.44;5072386;28;20047;-47
2021/06/14 02:35:56;;;;;;;6.63;0.55;;;;;;;13.74;100.00;100273.47;5072363;28;20400;-47
2021/06/14 02:39:11;;;;;;;3.83;0.52;;;;;;;13.82;100.00;100272.56;5072460;28;20044;-47
2021/06/14 02:42:15;;;;;;;0.52;0.35;;;;;;;13.90;100.00;100272.94;5072207;28;20044;-47
2021/06/14 02:45:19;;;;;;;1.27;0.57;;;;;;;14.01;100.00;100268.22;5072489;28;20059;-47
2021/06/14 02:48:24;;;;;;;1.15;0.50;;;;;;;13.89;100.00;100266.56;5072091;28;20048;-47
2021/06/14 02:51:31;;;;;;;0.98;0.75;;;;;;;13.92;100.00;100264.81;5072036;28;20405;-47
2021/06/14 02:54:38;;;;;;;0.88;0.40;;;;;;;13.93;100.00;100260.72;5071724;28;20064;-47
2021/06/14 02:57:51;;;;;;;2.58;0.40;;;;;;;14.00;100.00;100265.94;5071633;28;20393;-47
2021/06/14 03:00:54;;;;;;;3.42;0.43;;;;;;;14.12;100.00;100262.03;5072084;28;20480;-47
2021/06/14 03:03:58;;;;;;;0.85;0.52;;;;;;;14.16;100.00;100257.72;5072033;28;20488;-47
2021/06/14 03:07:03;;;;;;;1.90;0.32;;;;;;;14.31;100.00;100258.47;5072213;28;20467;-47
2021/06/14 03:10:08;;;;;;;0.70;0.47;;;;;;;14.38;100.00;100268.47;5072030;28;20051;-47
2021/06/14 03:13:13;;;;;;;0.52;0.20;;;;;;;14.37;100.00;100262.13;5072301;28;20106;-47
2021/06/14 03:16:20;;;;;;;0.75;0.25;;;;;;;14.32;100.00;100262.03;5072001;28;20048;-47
2021/06/14 03:19:26;;;;;;;0.55;0.30;;;;;;;14.55;100.00;100269.47;5071803;28;20051;-47
2021/06/14 03:22:29;;;;;;;1.90;0.50;;;;;;;14.47;100.00;100276.00;5071722;28;20381;-47
2021/06/14 03:25:32;;;;;;;0.65;0.32;;;;;;;14.51;100.00;100274.47;5070763;28;20055;-47
2021/06/14 03:28:40;;;;;;;1.95;0.40;;;;;;;14.48;100.00;100278.28;5071809;28;20380;-47
2021/06/14 03:31:46;;;;;;;0.50;0.28;;;;;;;14.45;100.00;100270.84;5071693;28;20051;-47
2021/06/14 03:34:52;;;;;;;0.90;0.30;;;;;;;14.57;100.00;100280.94;5071913;28;20048;-47
2021/06/14 03:37:55;;;;;;;0.68;0.28;;;;;;;14.61;100.00;100270.28;5071748;28;20103;-47
2021/06/14 03:40:59;;;;;;;4.05;0.75;;;;;;;14.55;100.00;100272.25;5071763;28;20051;-47
2021/06/14 03:44:03;;;;;;;3.38;0.93;;;;;;;14.56;100.00;100265.38;5071690;28;20389;-47
2021/06/14 03:47:06;;;;;;;0.82;0.45;;;;;;;14.51;100.00;100266.06;5071702;28;20524;-47
2021/06/14 03:50:10;;;;;;;1.35;0.43;;;;;;;14.53;100.00;100260.00;5071753;28;20044;-47
2021/06/14 03:53:14;;;;;;;0.60;0.32;;;;;;;14.58;100.00;100271.25;5071803;28;20052;-47
2021/06/14 03:56:17;;;;;;;0.57;0.28;;;;;;;14.74;100.00;100273.47;5071249;28;20055;-47
2021/06/14 03:59:20;;;;;;;0.90;0.32;;;;;;;14.87;100.00;100273.88;5071374;28;20504;-47
2021/06/14 04:02:24;;;;;;;1.80;0.70;;;;;;;15.11;100.00;100279.19;5071718;28;20374;-47
2021/06/14 04:05:27;;;;;;;0.20;0.10;;;;;;;15.26;100.00;100270.63;5071331;28;20051;-47
2021/06/14 04:08:31;;;;;;;0.38;0.38;;;;;;;15.15;100.00;100269.28;5071454;28;20142;-47
2021/06/14 04:11:34;;;;;;;2.72;0.17;;;;;;;15.11;100.00;100260.34;5074815;28;20044;-47
2021/06/14 04:14:39;;;;;;;0.38;0.10;;;;;;;15.14;100.00;100262.13;5074823;28;20047;-47
2021/06/14 04:17:43;;;;;;;2.83;0.43;;;;;;;15.22;100.00;100256.06;5074629;28;20059;-46
2021/06/14 04:20:46;;;;;;;0.15;0.10;;;;;;;15.34;100.00;100258.47;5074831;28;20048;-46
2021/06/14 04:23:50;;;;;;;0.77;0.30;;;;;;;15.33;100.00;100261.78;5074604;28;20048;-46
2021/06/14 04:26:53;;;;;;;0.55;0.30;;;;;;;15.32;100.00;100254.63;5074762;28;20119;-46
2021/06/14 04:29:57;;;;;;;0.63;0.20;;;;;;;15.29;100.00;100267.59;5074598;28;20511;-46
2021/06/14 04:33:00;;;;;;;0.28;0.10;;;;;;;15.30;100.00;100269.16;5074487;28;20048;-48
2021/06/14 04:36:04;;;;;;;1.20;0.40;;;;;;;15.47;100.00;100260.88;5074866;28;20077;-45
2021/06/14 04:39:09;;;;;;;1.80;0.32;;;;;;;15.64;100.00;100253.34;5074781;28;20039;-48
2021/06/14 04:42:13;;;;;;;0.15;0.15;;;;;;;15.79;100.00;100251.13;5074441;28;20401;-46
2021/06/14 04:45:16;;;;;;;0.30;0.30;;;;;;;15.87;100.00;100255.78;5074640;28;20508;-46
2021/06/14 04:48:20;;;;;;;3.05;0.20;;;;;;;15.88;100.00;100256.56;5074164;28;20060;-47
2021/06/14 04:51:24;;;;;;;1.05;0.73;;;;;;;15.86;100.00;100264.72;5074043;28;20047;-47
2021/06/14 04:54:27;;;;;;;0.63;0.10;;;;;;;16.01;100.00;100248.44;5073942;28;20392;-48
2021/06/14 04:57:30;;;;;;;1.20;0.20;;;;;;;16.03;100.00;100245.91;5074334;28;20064;-47
2021/06/14 05:00:34;;;;;;;1.67;0.20;;;;;;;16.00;100.00;100237.72;5073864;28;20405;-47
2021/06/14 05:03:37;;;;;;;0.20;0.20;;;;;;;16.05;100.00;100239.81;5073763;28;20052;-47
2021/06/14 05:06:41;;;;;;;2.75;0.22;;;;;;;16.01;100.00;100231.59;5073631;28;20048;-47
2021/06/14 05:09:44;;;;;;;0.30;0.10;;;;;;;15.97;100.00;100230.28;5073984;28;20043;-47
2021/06/14 05:12:47;;;;;;;0.22;0.22;;;;;;;15.99;100.00;100217.28;5073648;28;20063;-47
2021/06/14 05:15:51;;;;;;;1.75;0.55;;;;;;;16.04;100.00;100224.97;5073740;28;20055;-47
2021/06/14 05:18:54;;;;;;;1.95;0.70;;;;;;;16.07;100.00;100223.94;5073618;28;20051;-48
2021/06/14 05:22:01;;;;;;;0.55;0.43;;;;;;;15.99;100.00;100234.13;5073888;28;20056;-48
2021/06/14 05:25:05;;;;;;;0.98;0.38;;;;;;;16.05;100.00;100225.75;5073474;28;20040;-47
2021/06/14 05:28:09;;;;;;;1.13;0.43;;;;;;;16.06;100.00;100233.66;5073588;28;20047;-47
2021/06/14 05:31:12;;;;;;;1.10;0.47;;;;;;;16.16;100.00;100239.81;5073374;28;20055;-47
2021/06/14 05:34:16;;;;;;;1.23;0.52;;;;;;;16.25;100.00;100234.75;5073139;28;20052;-48
2021/06/14 05:37:19;;;;;;;0.52;0.20;;;;;;;16.35;100.00;100238.88;5073117;28;20393;-48
2021/06/14 05:40:22;;;;;;;0.30;0.30;;;;;;;16.43;100.00;100230.75;5073619;28;20067;-47
2021/06/14 05:43:26;;;;;;;0.60;0.47;;;;;;;16.47;100.00;100234.84;5072854;28;20051;-47
2021/06/14 05:46:30;;;;;;;0.75;0.17;;;;;;;16.52;100.00;100250.22;5073066;28;20055;-47
2021/06/14 05:49:33;;;;;;;0.10;0.10;;;;;;;16.53;100.00;100258.16;5073095;28;20054;-47
2021/06/14 05:52:36;;;;;;;0.52;0.30;;;;;;;16.49;100.00;100254.78;5072856;28;20098;-48
2021/06/14 05:55:40;;;;;;;0.32;0.20;;;;;;;16.53;100.00;100263.75;5072807;28;20436;-48
2021/06/14 05:58:43;;;;;;;1.42;0.40;;;;;;;16.55;100.00;100258.41;5072776;28;20051;-48
2021/06/14 06:01:47;;;;;;;4.22;0.60;;;;;;;16.58;100.00;100254.59;5073219;28;20059;-48
2021/06/14 06:04:50;;;;;;;0.95;0.10;;;;;;;16.73;100.00;100247.97;5072964;28;20043;-47
2021/06/14 06:07:53;;;;;;;1.20;0.43;;;;;;;16.76;100.00;100255.38;5072643;28;20055;-47
2021/06/14 06:10:57;;;;;;;1.00;0.28;;;;;;;16.76;100.00;100258.19;5072568;28;20047;-48
2021/06/14 06:14:01;;;;;;;1.17;0.40;;;;;;;16.81;100.00;100257.44;5072529;28;20052;-47
2021/06/14 06:17:04;;;;;;;1.95;0.35;;;;;;;16.87;100.00;100258.97;5072604;28;20047;-48
2021/06/14 06:20:10;;;;;;;1.63;0.57;;;;;;;16.88;100.00;100259.75;5072697;28;20393;-47
2021/06/14 06:23:14;;;;;;;2.28;0.40;;;;;;;16.86;100.00;100251.06;5072492;28;20055;-47
2021/06/14 06:26:17;;;;;;;1.42;0.47;;;;;;;16.93;100.00;100253.38;5072593;28;20051;-47
2021/06/14 06:29:21;;;;;;;2.60;0.82;;;;;;;17.00;100.00;100255.69;5072233;28;20047;-47
2021/06/14 06:32:24;;;;;;;0.65;0.10;;;;;;;16.96;100.00;100252.34;5071895;28;20043;-48
2021/06/14 06:35:28;;;;;;;2.67;0.30;;;;;;;17.01;100.00;100255.16;5072475;28;20043;-48
2021/06/14 06:38:31;;;;;;;0.43;0.17;;;;;;;17.00;100.00;100264.13;5072516;28;20063;-48
2021/06/14 06:41:34;;;;;;;1.75;0.20;;;;;;;16.85;100.00;100261.53;5072123;28;20059;-48
2021/06/14 06:44:38;;;;;;;2.45;0.20;;;;;;;16.80;100.00;100264.34;5071085;28;20059;-48
2021/06/14 06:47:42;;;;;;;1.85;0.20;;;;;;;16.74;100.00;100263.56;5071702;28;20051;-48
2021/06/14 06:50:45;;;;;;;4.47;0.45;;;;;;;16.70;100.00;100268.69;5071898;28;20063;-47
2021/06/14 06:53:48;;;;;;;1.13;0.20;;;;;;;16.60;100.00;100271.72;5072397;28;20488;-47
2021/06/14 06:56:54;;;;;;;0.90;0.30;;;;;;;16.63;100.00;100265.06;5071836;28;20052;-47
2021/06/14 06:59:58;;;;;;;0.68;0.15;;;;;;;16.81;100.00;100272.25;5072256;28;20500;-47
2021/06/14 07:03:01;;;;;;;0.30;0.10;;;;;;;17.00;100.00;100264.13;5072071;28;20039;-47
2021/06/14 07:06:05;;;;;;;0.82;0.20;;;;;;;17.10;100.00;100271.03;5072101;28;20048;-48
2021/06/14 07:09:08;;;;;;;0.98;0.25;;;;;;;17.17;100.00;100264.91;5071990;28;20055;-47
2021/06/14 07:12:12;;;;;;;1.30;0.45;;;;;;;17.09;100.00;100267.44;5071935;28;20516;-47
2021/06/14 07:15:16;;;;;;;0.35;0.13;;;;;;;17.25;100.00;100274.38;5071913;28;20059;-48
2021/06/14 07:18:20;;;;;;;0.85;0.20;;;;;;;17.38;100.00;100266.97;5071931;28;20048;-47
2021/06/14 07:21:24;;;;;;;9.40;1.35;;;;;;;17.53;100.00;100272.34;5071791;28;20044;-47
2021/06/14 07:24:27;;;;;;;2.17;0.30;;;;;;;17.67;100.00;100281.81;5071683;28;20044;-47
2021/06/14 07:27:32;;;;;;;0.93;0.10;;;;;;;17.91;100.00;100274.31;5071767;28;20051;-47
2021/06/14 07:30:36;;;;;;;0.30;0.13;;;;;;;18.20;100.00;100272.97;5071771;28;20047;-47
2021/06/14 07:33:40;;;;;;;0.47;0.10;;;;;;;18.46;100.00;100281.06;5071652;28;20044;-48
2021/06/14 07:36:43;;;;;;;1.17;0.22;;;;;;;18.64;100.00;100294.59;5071723;28;20416;-47
2021/06/14 07:39:47;;;;;;;2.17;0.10;;;;;;;18.69;100.00;100299.44;5071850;28;20272;-47
2021/06/14 07:42:51;;;;;;;0.70;0.03;;;;;;;18.78;100.00;100290.66;5071704;28;20503;-47
2021/06/14 07:45:54;;;;;;;0.10;0.03;;;;;;;18.62;100.00;100286.66;5075536;28;20051;-47
2021/06/14 07:48:58;;;;;;;0.30;0.10;;;;;;;18.63;100.00;100287.41;5075359;28;20052;-47
2021/06/14 07:52:03;;;;;;;0.57;0.10;;;;;;;18.72;100.00;100296.34;5075256;28;20048;-48
2021/06/14 07:55:07;;;;;;;3.10;0.40;;;;;;;18.86;100.00;100294.47;5075064;28;20534;-47
2021/06/14 07:58:10;;;;;;;0.93;0.10;;;;;;;19.11;100.00;100293.28;5075220;28;20052;-47
2021/06/14 08:01:14;;;;;;;2.05;0.28;;;;;;;19.27;100.00;100298.03;5075113;28;20043;-48
2021/06/14 08:04:18;;;;;;;4.50;0.17;;;;;;;18.88;100.00;100286.25;5074855;28;20044;-47
2021/06/14 08:07:21;;;;;;;3.22;0.35;;;;;;;18.89;100.00;100290.59;5075190;28;20055;-48
2021/06/14 08:10:25;;;;;;;1.70;0.32;;;;;;;19.14;100.00;100291.47;5074772;28;20515;-47
2021/06/14 08:13:28;;;;;;;0.45;0.10;;;;;;;19.18;100.00;100281.44;5074775;28;20067;-47
2021/06/14 08:16:39;;;;;;;0.50;0.25;;;;;;;19.58;100.00;100282.66;5074687;28;20504;-47
2021/06/14 08:19:56;;;;;;;2.05;0.52;;;;;;;19.87;100.00;100295.22;5074914;28;20048;-48
2021/06/14 08:26:25;;;;;;;1.00;0.30;;;;;;;19.68;100.00;100295.16;5074887;28;20051;-47
2021/06/14 08:29:29;;;;;;;2.63;0.70;;;;;;;19.79;100.00;100288.63;5074630;28;20055;-47
2021/06/14 08:32:32;;;;;;;3.83;1.13;;;;;;;19.68;100.00;100295.16;5074353;28;20051;-49
2021/06/14 08:35:36;;;;;;;5.55;1.02;;;;;;;19.29;100.00;100298.28;5074570;28;20048;-48
2021/06/14 08:38:40;;;;;;;5.72;1.05;;;;;;;18.90;100.00;100300.59;5074266;28;20055;-47
2021/06/14 08:41:45;;;;;;;3.83;0.93;;;;;;;18.64;100.00;100314.34;5074300;28;20059;-47
2021/06/14 08:44:49;;;;;;;3.20;0.60;;;;;;;18.37;100.00;100306.72;5074493;28;20048;-47
2021/06/14 08:47:53;;;;;;;3.50;1.10;;;;;;;18.12;100.00;100317.84;5074634;28;20055;-47
2021/06/14 08:50:57;;;;;;;2.40;0.60;;;;;;;17.97;100.00;100327.88;5074559;28;20052;-47
2021/06/14 08:54:04;;;;;;;3.70;1.67;;;;;;;17.93;100.00;100339.38;5074130;28;20056;-47
2021/06/14 08:57:10;;;;;;;13.75;1.55;;;;;;;17.77;100.00;100337.38;5074123;28;20059;-47
2021/06/14 09:00:18;;;;;;;3.10;1.00;;;;;;;17.63;100.00;100344.03;5073970;28;20052;-47
2021/06/14 09:03:24;;;;;;;1.73;0.93;;;;;;;17.67;100.00;100341.72;5073796;28;20039;-47
2021/06/14 09:06:27;;;;;;;0.95;0.57;;;;;;;17.62;100.00;100341.72;5073763;28;20397;-47
2021/06/14 09:09:32;;;;;;;0.80;0.52;;;;;;;17.68;100.00;100343.25;5074021;28;20051;-47
2021/06/14 09:12:40;;;;;;;2.28;0.32;;;;;;;17.83;100.00;100349.41;5072642;28;20158;-47
2021/06/14 09:15:47;;;;;;;1.52;0.73;;;;;;;18.02;100.00;100352.44;5073782;28;20047;-47
2021/06/14 09:18:50;;;;;;;1.83;0.55;;;;;;;17.83;100.00;100351.44;5073924;28;20043;-48
2021/06/14 09:21:55;;;;;;;1.75;0.52;;;;;;;17.57;100.00;100360.16;5073735;28;20056;-47
2021/06/14 09:25:15;;;;;;;1.33;0.40;;;;;;;17.09;100.00;100365.16;5073469;28;20400;-47
2021/06/14 09:28:19;;;;;;;2.53;0.40;;;;;;;16.83;100.00;100375.88;5073689;28;20043;-47
2021/06/14 09:31:26;;;;;;;1.23;0.47;;;;;;;16.80;100.00;100382.50;5073245;28;20043;-47
2021/06/14 09:34:42;;;;;;;1.25;0.28;;;;;;;16.97;100.00;100386.13;5073212;28;20051;-47
2021/06/14 09:38:07;;;;;;;1.30;0.20;;;;;;;17.04;100.00;100385.66;5073350;28;20051;-47
2021/06/14 09:41:15;;;;;;;2.38;0.98;;;;;;;16.99;100.00;100397.66;5073289;28;20051;-47
2021/06/14 09:44:30;;;;;;;1.55;0.50;;;;;;;16.82;100.00;100391.19;5073093;28;20393;-47
2021/06/14 09:47:33;;;;;;;1.08;0.40;;;;;;;16.77;100.00;100397.56;5072737;28;20048;-47
2021/06/14 09:50:43;;;;;;;1.85;0.68;;;;;;;16.67;100.00;100400.56;5072859;28;20480;-47
2021/06/14 09:53:52;;;;;;;0.50;0.35;;;;;;;16.56;100.00;100389.31;5073110;28;20051;-47
2021/06/14 09:56:57;;;;;;;1.48;0.30;;;;;;;16.53;100.00;100395.91;5073268;28;20409;-47
2021/06/14 10:00:11;;;;;;;0.50;0.10;;;;;;;16.38;100.00;100402.97;5073133;28;20047;-47
2021/06/14 10:03:15;;;;;;;1.23;0.35;;;;;;;16.27;100.00;100403.66;5072880;28;20123;-47
2021/06/14 10:06:37;;;;;;;0.98;0.30;;;;;;;16.19;100.00;100402.59;5072146;28;20056;-47
2021/06/14 10:09:48;;;;;;;0.20;0.10;;;;;;;16.07;100.00;100408.66;5072766;28;20047;-47
2021/06/14 10:12:53;;;;;;;1.73;0.10;;;;;;;16.10;100.00;100411.22;5072694;28;20067;-47
2021/06/14 10:16:08;;;;;;;0.95;0.40;;;;;;;16.11;100.00;100418.38;5072500;28;20568;-47
2021/06/14 10:19:14;;;;;;;1.67;0.25;;;;;;;16.17;100.00;100415.59;5072679;28;20043;-47
2021/06/14 10:22:17;;;;;;;0.73;0.30;;;;;;;16.22;100.00;100426.88;5072456;28;20091;-47
2021/06/14 10:25:22;;;;;;;0.30;0.10;;;;;;;16.23;100.00;100428.41;5072254;28;20405;-47
2021/06/14 10:28:27;;;;;;;1.65;0.20;;;;;;;16.11;100.00;100428.84;5072691;28;20385;-47
2021/06/14 10:31:31;;;;;;;0.20;0.10;;;;;;;16.08;100.00;100424.22;5072527;28;20401;-47
2021/06/14 10:34:35;;;;;;;0.30;0.17;;;;;;;16.09;100.00;100426.50;5071898;28;20078;-47
2021/06/14 10:37:46;;;;;;;0.28;0.10;;;;;;;16.19;100.00;100408.22;5072154;28;20393;-47
2021/06/14 10:40:51;;;;;;;;;;;;;;;16.31;100.00;100423.88;5072566;28;20056;-47
2021/06/14 10:43:55;;;;;;;2.75;0.10;;;;;;;16.33;100.00;100423.38;5072147;28;19916;-46
2021/06/14 10:46:58;;;;;;;0.30;0.20;;;;;;;16.32;100.00;100425.44;5072339;28;20048;-47
2021/06/14 10:50:03;;;;;;;1.48;0.32;;;;;;;16.36;100.00;100420.34;5072387;28;20043;-46
2021/06/14 10:53:07;;;;;;;0.22;0.10;;;;;;;16.56;100.00;100428.66;5072156;28;20055;-47
2021/06/14 10:56:14;;;;;;;0.50;0.20;;;;;;;16.75;100.00;100429.00;5072164;28;20056;-47
2021/06/14 10:59:18;;;;;;;0.28;0.10;;;;;;;16.73;100.00;100428.75;5072060;28;20067;-47
2021/06/14 11:02:24;;;;;;;0.40;0.10;;;;;;;16.80;100.00;100431.09;5072039;28;20044;-47
2021/06/14 11:05:32;;;;;;;0.57;0.10;;;;;;;16.75;100.00;100434.63;5071593;28;20051;-46
2021/06/14 11:08:36;;;;;;;0.20;0.08;;;;;;;16.80;100.00;100435.94;5071583;28;20047;-47
2021/06/14 11:11:58;;;;;;;0.47;0.10;;;;;;;16.93;100.00;100434.22;5071696;28;20043;-46
2021/06/14 11:15:08;;;;;;;1.58;0.10;;;;;;;17.21;100.00;100420.22;5072044;28;20059;-47
2021/06/14 11:18:34;;;;;;;1.05;0.15;;;;;;;17.53;100.00;100424.44;5073324;28;20512;-47
2021/06/14 11:21:39;;;;;;;3.75;0.32;;;;;;;18.10;100.00;100416.22;5075672;28;20504;-47
2021/06/14 11:24:44;;;;;;;0.10;0.10;;;;;;;18.38;100.00;100418.25;5075837;28;20051;-47
2021/06/14 11:27:47;;;;;;;0.10;0.00;;;;;;;18.57;100.00;100413.63;5075718;28;20048;-46
2021/06/14 11:30:51;;;;;;;0.03;0.00;;;;;;;18.77;100.00;100416.13;5076048;28;20397;-47
2021/06/14 11:34:02;;;;;;;0.00;0.00;;;;;;;18.79;100.00;100419.19;5075769;28;20052;-47
2021/06/14 11:37:06;;;;;;;0.40;0.00;;;;;;;18.70;100.00;100419.47;5075612;28;20055;-47
2021/06/14 11:40:11;;;;;;;0.35;0.30;;;;;;;18.86;100.00;100415.84;5075780;28;20043;-47
2021/06/14 11:43:15;;;;;;;0.40;0.10;;;;;;;19.21;100.00;100418.72;5075300;28;20059;-47
2021/06/14 11:46:22;;;;;;;0.10;0.00;;;;;;;19.21;100.00;100415.91;5075573;28;20051;-47
2021/06/14 11:49:31;;;;;;;0.10;0.00;;;;;;;19.07;100.00;100422.66;5075511;28;20059;-47
2021/06/14 11:52:35;;;;;;;0.30;0.17;;;;;;;18.91;100.00;100415.03;5075169;28;20048;-47
2021/06/14 11:55:41;;;;;;;0.00;0.00;;;;;;;18.96;100.00;100422.72;5075273;28;20055;-47
2021/06/14 11:58:56;;;;;;;0.10;0.00;;;;;;;19.24;100.00;100420.53;5075306;28;20059;-47
2021/06/14 12:02:16;;;;;;;0.20;0.10;;;;;;;19.18;100.00;100416.19;5075089;28;20063;-47
2021/06/14 12:05:34;;;;;;;0.03;0.00;;;;;;;19.23;100.00;100421.78;5075048;28;20048;-47
2021/06/14 12:08:37;;;;;;;0.38;0.10;;;;;;;19.35;100.00;100414.84;5074996;28;20044;-47
2021/06/14 12:11:42;;;;;;;2.70;0.10;;;;;;;19.43;100.00;100421.47;5075245;28;20043;-47
2021/06/14 12:14:54;;;;;;;6.03;0.45;;;;;;;19.24;100.00;100426.16;5074644;28;20516;-46
2021/06/14 12:17:57;;;;;;;2.25;0.28;;;;;;;19.21;100.00;100421.56;5074587;28;20055;-47
2021/06/14 12:21:07;;;;;;;1.70;0.40;;;;;;;19.39;100.00;100432.28;5074507;28;20103;-47
2021/06/14 12:24:16;;;;;;;1.15;0.10;;;;;;;19.90;100.00;100432.69;5074647;28;20044;-47
2021/06/14 12:27:21;;;;;;;0.65;0.08;;;;;;;20.07;100.00;100427.66;5074637;28;20046;-47
2021/06/14 12:30:26;;;;;;;0.60;0.10;;;;;;;20.24;100.00;100428.31;5073762;28;20059;-47
2021/06/14 12:33:31;;;;;;;0.10;0.00;;;;;;;20.46;100.00;100419.59;5074482;28;20500;-47
2021/06/14 12:36:34;;;;;;;0.30;0.20;;;;;;;20.74;100.00;100417.22;5074377;28;20064;-47
2021/06/14 12:39:38;;;;;;;0.63;0.10;;;;;;;20.93;100.00;100417.25;5074485;28;20047;-47
2021/06/14 12:42:42;;;;;;;0.43;0.00;;;;;;;21.20;100.00;100424.66;5074359;28;20047;-47
2021/06/14 12:45:46;;;;;;;0.13;0.10;;;;;;;21.10;100.00;100424.25;5074532;28;20044;-47
2021/06/14 12:48:50;;;;;;;0.40;0.03;;;;;;;20.73;100.00;100421.34;5074316;28;20071;-47
2021/06/14 12:51:54;;;;;;;1.75;0.13;;;;;;;20.89;100.00;100423.22;5073439;28;20043;-47
2021/06/14 12:54:59;;;;;;;0.10;0.10;;;;;;;21.00;100.00;100416.66;5074142;28;20384;-47
2021/06/14 12:58:14;;;;;;;1.58;0.00;;;;;;;20.91;100.00;100420.63;5074143;28;20421;-47
2021/06/14 13:01:20;;;;;;;0.10;0.00;;;;;;;20.80;100.00;100420.75;5074051;28;20503;-47
2021/06/14 13:04:25;;;;;;;0.20;0.10;;;;;;;20.83;100.00;100424.59;5073885;28;20048;-47
2021/06/14 13:07:29;;;;;;;0.22;0.03;;;;;;;20.67;100.00;100423.47;5073939;28;20047;-47
2021/06/14 13:10:50;;;;;;;0.10;0.00;;;;;;;20.44;100.00;100416.53;5074004;28;20051;-48
2021/06/14 13:13:55;;;;;;;0.52;0.13;;;;;;;20.20;100.00;100424.97;5073758;28;20052;-47
2021/06/14 13:16:59;;;;;;;1.15;0.10;;;;;;;20.23;100.00;100429.59;5073184;28;20102;-47
2021/06/14 13:20:04;;;;;;;0.75;0.10;;;;;;;20.29;100.00;100427.50;5073899;28;20052;-47
2021/06/14 13:23:11;;;;;;;0.63;0.10;;;;;;;20.77;100.00;100421.06;5073491;28;20043;-46
2021/06/14 13:26:16;;;;;;;0.17;0.00;;;;;;;21.10;100.00;100415.75;5072732;28;20127;-47
2021/06/14 13:29:29;;;;;;;0.85;0.25;;;;;;;21.40;100.00;100414.81;5072565;28;20532;-47
2021/06/14 13:33:15;;;;;;;4.22;0.10;;;;;;;21.43;100.00;100408.09;5073164;28;20043;-47
2021/06/14 13:36:11;;;;;;;0.98;0.00;;;;;;;21.42;100.00;100415.09;5073441;28;20047;-47
2021/06/14 13:39:24;;;;;;;0.82;0.00;;;;;;;21.46;100.00;100404.19;5073345;28;20127;-46
2021/06/14 13:42:27;;;;;;;0.00;0.00;;;;;;;21.29;100.00;100409.34;5073258;28;20039;-46
2021/06/14 13:45:33;;;;;;;1.00;0.10;;;;;;;20.97;100.00;100418.47;5073425;28;20044;-47
2021/06/14 13:48:45;;;;;;;1.27;0.10;;;;;;;21.43;100.00;100414.53;5073221;28;20052;-47
2021/06/14 13:51:55;;;;;;;0.77;0.15;;;;;;;21.84;100.00;100409.28;5073199;28;20067;-47
2021/06/14 13:55:01;;;;;;;2.33;0.10;;;;;;;22.28;100.00;100407.75;5072943;28;20047;-47
2021/06/14 13:58:05;;;;;;;0.10;0.00;;;;;;;22.33;100.00;100423.91;5072311;28;20381;-47
2021/06/14 14:01:09;;;;;;;0.10;0.00;;;;;;;;;;5072861;28;20532;-47
2021/06/14 14:04:19;;;;;;;4.65;0.05;;;;;;;21.61;100.00;100424.31;5072771;28;20040;-46
2021/06/14 14:07:22;;;;;;;4.50;0.60;;;;;;;21.09;100.00;100402.88;5072579;28;20043;-47
2021/06/14 14:10:27;;;;;;;0.45;0.00;;;;;;;21.19;100.00;100416.69;5072760;28;20270;-46
2021/06/14 14:13:31;;;;;;;9.32;0.10;;;;;;;21.19;100.00;100411.78;5072351;28;20048;-46
2021/06/14 14:16:34;;;;;;;0.35;0.10;;;;;;;21.00;100.00;100417.44;5072467;28;20048;-47